Ship Status Report: callsign SLRE

sailwx.info

Track history (hours):
 
Tides and Currents Weather Stations Pressure Air Temp Water Temp Dewpoint Dewpoint Depression Visibility Wind Speed Wind Dir Waves Ship Positions

Callsign SLRE (name unknown)

Last reported at 2017-May-25 01:22 UTC. Time now 2017-May-25 14:21 UTC.
Position N 57°02' E 011°57'.

AWS

Date/timePositionNaut miles runAvg speedWind from/ knotsBaromVisibWave heightAir tempDewpointWater temp
2017-May-25 01:22N 57°02' E 011°57'5 1.4
2017-May-24 21:47N 57°00' E 011°48'10 0.5
2017-May-24 00:24N 57°02' E 012°07'2 0.8
2017-May-23 22:15N 57°02' E 012°10'1 2.7
2017-May-23 21:49N 57°01' E 012°11'1 2.5
2017-May-23 21:30N 57°01' E 012°10'1 2.6
2017-May-23 21:00N 57°00' E 012°08'1 2.6
2017-May-23 20:30N 56°60' E 012°05'1 2.6
2017-May-23 20:00N 56°60' E 012°03'1 2.2
2017-May-23 19:22N 57°01' E 012°03'1 2.7
2017-May-23 19:00N 57°01' E 012°05'7 4.4
2017-May-23 17:28N 57°04' E 012°16'0 0.1
2017-May-23 16:52N 57°04' E 012°16'0 0.5
2017-May-23 16:30N 57°03' E 012°16'54 8.9
2017-May-23 10:25N 56°10' E 012°30'4 9.1
2017-May-23 10:00N 56°07' E 012°34'4 8.9
2017-May-23 09:30N 56°03' E 012°39'4 8.7
2017-May-23 09:01N 55°59' E 012°42'4 8.6
2017-May-23 08:30N 55°55' E 012°44'4 8.8
2017-May-23 08:00N 55°51' E 012°43'4 8.7
2017-May-23 07:31N 55°47' E 012°42'4 8.9
2017-May-23 07:00N 55°42' E 012°41'4 8.9
2017-May-23 06:30N 55°38' E 012°42'4 8.8
2017-May-23 06:00N 55°33' E 012°42'4 8.9
2017-May-23 05:30N 55°29' E 012°43'6 9.2
2017-May-23 04:50N 55°23' E 012°43'3 9.1
2017-May-23 04:28N 55°19' E 012°44'4 8.4
2017-May-23 03:59N 55°18' E 012°51'4 9.1
2017-May-23 03:29N 55°18' E 012°59'9 9.2
2017-May-23 02:28N 55°18' E 013°16'5 9.1
2017-May-23 01:58N 55°19' E 013°23'4 9.2
2017-May-23 01:29N 55°19' E 013°31'5 8.8
2017-May-23 00:52N 55°20' E 013°41'4 9.3
2017-May-23 00:29N 55°20' E 013°47'5 9.3
2017-May-22 23:59N 55°20' E 013°55'4 9.2
2017-May-22 23:30N 55°21' E 014°03'5 9.0
2017-May-22 23:00N 55°21' E 014°11'5 9.0
2017-May-22 22:29N 55°23' E 014°18'5 9.4
2017-May-22 21:57N 55°27' E 014°25'5 9.3
2017-May-22 21:27N 55°30' E 014°30'20 9.0
2017-May-22 19:15N 55°44' E 014°55'2 9.0
2017-May-22 19:00N 55°45' E 014°58'4 8.9
2017-May-22 18:30N 55°48' E 015°04'4 8.9
2017-May-22 18:00N 55°51' E 015°10'5 9.0
2017-May-22 17:30N 55°54' E 015°16'4 8.9
2017-May-22 17:00N 55°57' E 015°22'4 8.8
2017-May-22 16:30N 56°01' E 015°27'4 8.6
2017-May-22 16:00N 56°03' E 015°33'4 8.4
2017-May-22 15:30N 56°07' E 015°35'2 4.8
2017-May-22 15:00N 56°10' E 015°34'0 0.0
2017-May-22 14:00N 56°10' E 015°34'0 0.0
2017-May-22 13:30N 56°10' E 015°34'0 0.0
2017-May-22 13:00N 56°10' E 015°34'0 0.0
2017-May-22 12:31N 56°10' E 015°34'0 0.0
2017-May-22 12:01N 56°10' E 015°34'0 0.0
2017-May-22 11:30N 56°10' E 015°34'0 0.0
2017-May-22 11:00N 56°10' E 015°34'0 0.0
2017-May-22 10:30N 56°10' E 015°34'0 0.0
2017-May-22 10:01N 56°10' E 015°34'0 0.0
2017-May-22 09:30N 56°10' E 015°34'0 0.0
2017-May-22 09:01N 56°10' E 015°34'0 0.0
2017-May-22 08:31N 56°10' E 015°34'0 0.0
2017-May-22 08:01N 56°10' E 015°34'0 0.0
2017-May-22 07:31N 56°10' E 015°34'0 0.0
2017-May-22 07:01N 56°10' E 015°34'0 0.0
2017-May-22 06:31N 56°10' E 015°34'0 0.0
2017-May-22 06:00N 56°10' E 015°34'0 0.0
2017-May-22 05:30N 56°10' E 015°34'0 0.0
2017-May-22 05:01N 56°10' E 015°34'0 0.0
2017-May-22 04:30N 56°10' E 015°34'0 0.0
2017-May-22 04:00N 56°10' E 015°34'0 0.0
2017-May-22 03:30N 56°10' E 015°34'0 0.0
2017-May-22 03:00N 56°10' E 015°34'0 0.0
2017-May-22 02:31N 56°10' E 015°34'0 0.0
2017-May-22 02:00N 56°10' E 015°34'0 0.0
2017-May-22 01:31N 56°10' E 015°34'0 0.0
2017-May-22 01:00N 56°10' E 015°34'0 0.0
2017-May-22 00:31N 56°10' E 015°34'0 0.0
2017-May-22 00:00N 56°10' E 015°34'0 0.0
2017-May-21 23:31N 56°10' E 015°34'0 0.0
2017-May-21 23:01N 56°10' E 015°34'0 0.0
2017-May-21 22:30N 56°10' E 015°34'0 0.0
2017-May-21 22:00N 56°10' E 015°34'0 0.0
2017-May-21 21:31N 56°10' E 015°34'0 0.0
2017-May-21 21:01N 56°10' E 015°34'0 0.0
2017-May-21 20:30N 56°10' E 015°34'0 0.0
2017-May-21 20:00N 56°10' E 015°34'0 0.0
2017-May-21 19:30N 56°10' E 015°34'0 0.0
2017-May-21 19:00N 56°10' E 015°34'0 0.0
2017-May-21 18:31N 56°10' E 015°34'0 0.0
2017-May-21 18:01N 56°10' E 015°34'0 0.0
2017-May-21 17:30N 56°10' E 015°34'0 0.0
2017-May-21 17:00N 56°10' E 015°34'0 0.0
2017-May-21 16:30N 56°10' E 015°34'0 0.0
2017-May-21 16:00N 56°10' E 015°34'0 0.0
2017-May-21 15:30N 56°10' E 015°34'0 0.0
2017-May-21 15:00N 56°10' E 015°34'0 0.0
2017-May-21 14:30N 56°10' E 015°34'0 0.0
2017-May-21 13:31N 56°10' E 015°34'0 0.0
2017-May-21 13:01N 56°10' E 015°34'0 0.0
2017-May-21 12:30N 56°10' E 015°34'0 0.0
2017-May-21 12:01N 56°10' E 015°34'0 0.0
2017-May-21 11:30N 56°10' E 015°34'0 0.0
2017-May-21 11:00N 56°10' E 015°34'0 0.0
2017-May-21 10:30N 56°10' E 015°34'0 0.0
2017-May-21 10:00N 56°10' E 015°34'0 0.0
2017-May-21 09:31N 56°10' E 015°34'0 0.0
2017-May-21 09:00N 56°10' E 015°34'0 0.0
2017-May-21 08:30N 56°10' E 015°34'0 0.0
2017-May-21 08:00N 56°10' E 015°34'0 0.0
2017-May-21 07:30N 56°10' E 015°34'0 0.0
2017-May-21 07:00N 56°10' E 015°34'0 0.0
2017-May-21 06:31N 56°10' E 015°34'0 0.0
2017-May-21 06:01N 56°10' E 015°34'0 0.0
2017-May-21 05:30N 56°10' E 015°34'0 0.0
2017-May-21 05:00N 56°10' E 015°34'0 0.0
2017-May-21 04:30N 56°10' E 015°34'0 0.0
2017-May-21 04:00N 56°10' E 015°34'0 0.0
2017-May-21 03:31N 56°10' E 015°34'0 0.0
2017-May-21 03:01N 56°10' E 015°34'0 0.0
2017-May-21 02:31N 56°10' E 015°34'0 0.0
2017-May-21 02:00N 56°10' E 015°34'0 0.0
2017-May-21 01:30N 56°10' E 015°34'0 0.0
2017-May-21 01:00N 56°10' E 015°34'0 0.0
2017-May-21 00:30N 56°10' E 015°34'0 0.0
2017-May-21 00:00N 56°10' E 015°34'0 0.0
2017-May-20 23:31N 56°10' E 015°34'0 0.0
2017-May-20 23:00N 56°10' E 015°34'0 0.0
2017-May-20 22:30N 56°10' E 015°34'0 0.0
2017-May-20 22:01N 56°10' E 015°34'0 0.0
2017-May-20 21:30N 56°10' E 015°34'0 0.0
2017-May-20 21:00N 56°10' E 015°34'0 0.0
2017-May-20 20:30N 56°10' E 015°34'0 0.0
2017-May-20 20:00N 56°10' E 015°34'0 0.0
2017-May-20 19:31N 56°10' E 015°34'0 0.0
2017-May-20 19:01N 56°10' E 015°34'0 0.0
2017-May-20 18:30N 56°10' E 015°34'0 0.0
2017-May-20 18:01N 56°10' E 015°34'0 0.0
2017-May-20 17:30N 56°10' E 015°34'0 0.0
2017-May-20 17:00N 56°10' E 015°34'0 0.0
2017-May-20 16:30N 56°10' E 015°34'0 0.0
2017-May-20 16:00N 56°10' E 015°34'0 0.0
2017-May-20 15:31N 56°10' E 015°34'0 0.0
2017-May-20 15:01N 56°10' E 015°34'0 0.0
2017-May-20 14:00N 56°10' E 015°34'0 0.0
2017-May-20 13:30N 56°10' E 015°34'0 0.0
2017-May-20 13:00N 56°10' E 015°34'0 0.0
2017-May-20 12:31N 56°10' E 015°34'0 0.0
2017-May-20 12:00N 56°10' E 015°34'0 0.0
2017-May-20 11:30N 56°10' E 015°34'0 0.0
2017-May-20 11:00N 56°10' E 015°34'0 0.0
2017-May-20 10:31N 56°10' E 015°34'0 0.0
2017-May-20 10:01N 56°10' E 015°34'0 0.0
2017-May-20 09:31N 56°10' E 015°34'0 0.0
2017-May-20 09:00N 56°10' E 015°34'0 0.0
2017-May-20 08:30N 56°10' E 015°34'0 0.0
2017-May-20 08:01N 56°10' E 015°34'0 0.0
2017-May-20 07:31N 56°10' E 015°34'0 0.0
2017-May-20 07:00N 56°10' E 015°34'0 0.0
2017-May-20 06:30N 56°10' E 015°34'0 0.0
2017-May-20 06:00N 56°10' E 015°34'0 0.0
2017-May-20 05:30N 56°10' E 015°34'0 0.0
2017-May-20 05:00N 56°10' E 015°34'0 0.0
2017-May-20 04:31N 56°10' E 015°34'0 0.0
2017-May-20 04:00N 56°10' E 015°34'0 0.0
2017-May-20 03:31N 56°10' E 015°34'0 0.0
2017-May-20 03:00N 56°10' E 015°34'0 0.0
2017-May-20 02:30N 56°10' E 015°34'0 0.0
2017-May-20 02:00N 56°10' E 015°34'0 0.0
2017-May-20 01:30N 56°10' E 015°34'0 0.0
2017-May-20 01:00N 56°10' E 015°34'0 0.0
2017-May-20 00:30N 56°10' E 015°34'0 0.0
2017-May-20 00:00N 56°10' E 015°34'0 0.0
2017-May-19 23:30N 56°10' E 015°34'0 0.0
2017-May-19 23:00N 56°10' E 015°34'0 0.0
2017-May-19 22:30N 56°10' E 015°34'0 0.0
2017-May-19 22:00N 56°10' E 015°34'0 0.0
2017-May-19 21:31N 56°10' E 015°34'0 0.0
2017-May-19 21:01N 56°10' E 015°34'0 0.0
2017-May-19 20:30N 56°10' E 015°34'0 0.0
2017-May-19 20:00N 56°10' E 015°34'0 0.0
2017-May-19 19:31N 56°10' E 015°34'0 0.0
2017-May-19 19:00N 56°10' E 015°34'0 0.0
2017-May-19 18:31N 56°10' E 015°34'0 0.0
2017-May-19 18:00N 56°10' E 015°34'0 0.0
2017-May-19 17:30N 56°10' E 015°34'0 0.0
2017-May-19 17:00N 56°10' E 015°34'0 0.0
2017-May-19 16:30N 56°10' E 015°34'0 0.0
2017-May-19 16:00N 56°10' E 015°34'0 0.0
2017-May-19 15:30N 56°10' E 015°34'0 0.0
2017-May-19 15:00N 56°10' E 015°34'0 0.0
2017-May-19 14:00N 56°10' E 015°34'0 0.0
2017-May-19 13:30N 56°10' E 015°34'0 0.0
2017-May-19 13:00N 56°10' E 015°34'0 0.0
2017-May-19 12:30N 56°10' E 015°34'0 0.0
2017-May-19 12:00N 56°10' E 015°34'0 0.0
2017-May-19 11:30N 56°10' E 015°34'0 0.0
2017-May-19 11:00N 56°10' E 015°34'0 0.0
2017-May-19 10:30N 56°10' E 015°34'0 0.0
2017-May-19 10:00N 56°10' E 015°34'0 0.0
2017-May-19 09:30N 56°10' E 015°34'0 0.0
2017-May-19 09:01N 56°10' E 015°34'0 0.0
2017-May-19 08:30N 56°10' E 015°34'0 0.0
2017-May-19 08:01N 56°10' E 015°34'0 0.0
2017-May-19 07:30N 56°10' E 015°34'0 0.0
2017-May-19 07:00N 56°10' E 015°34'0 0.0
2017-May-19 06:30N 56°10' E 015°34'0 0.0
2017-May-19 06:00N 56°10' E 015°34'0 0.1
2017-May-19 05:30N 56°10' E 015°34'0 0.1
2017-May-19 05:00N 56°10' E 015°34'0 0.0
2017-May-19 04:31N 56°10' E 015°34'0 0.0
2017-May-19 04:01N 56°10' E 015°34'0 0.0
2017-May-19 03:30N 56°10' E 015°34'4 7.7
2017-May-19 03:01N 56°06' E 015°34'4 8.6
2017-May-19 02:31N 56°02' E 015°39'5 9.6
2017-May-19 02:00N 56°00' E 015°46'5 9.5
2017-May-19 01:30N 55°58' E 015°54'5 9.6
2017-May-19 01:01N 55°56' E 016°02'5 9.5
2017-May-19 00:30N 55°54' E 016°10'5 9.4
2017-May-19 00:00N 55°52' E 016°18'  
2017-May-16 15:37N 55°21' E 017°39'0 3.2
2017-May-16 15:30N 55°21' E 017°39'2 3.2
2017-May-16 15:01N 55°21' E 017°42'2 3.5
2017-May-16 14:30N 55°21' E 017°45'1 0.8
2017-May-16 13:31N 55°20' E 017°44'2 3.1
2017-May-16 13:00N 55°20' E 017°41'6 3.1
2017-May-16 11:09N 55°21' E 017°31'1 3.6
2017-May-16 11:00N 55°20' E 017°30'1 2.7
2017-May-16 10:30N 55°20' E 017°33'1 3.0
2017-May-16 10:00N 55°20' E 017°35'1 3.1
2017-May-16 09:30N 55°20' E 017°38'2 3.1
2017-May-16 09:00N 55°20' E 017°41'2 3.0
2017-May-16 08:30N 55°20' E 017°43'4 2.5
2017-May-16 07:01N 55°19' E 017°37'0 3.2
2017-May-16 06:57N 55°19' E 017°37'3 3.1
2017-May-16 05:56N 55°18' E 017°31'1 2.8
2017-May-16 05:30N 55°18' E 017°33'64 4.8
2017-May-15 16:09N 55°55' E 016°02'1 8.9
2017-May-15 16:00N 55°56' E 015°60'4 8.9
2017-May-15 15:30N 55°58' E 015°53'4 8.9
2017-May-15 15:00N 55°60' E 015°46'9 8.5
2017-May-15 14:00N 56°05' E 015°34'4 8.3
2017-May-15 13:30N 56°09' E 015°34'1 1.0
2017-May-15 13:00N 56°10' E 015°34'0 0.0
2017-May-15 12:30N 56°10' E 015°34'0 0.0
2017-May-15 12:01N 56°10' E 015°34'0 0.0
2017-May-15 11:30N 56°10' E 015°34'0 0.0
2017-May-15 11:01N 56°10' E 015°34'0 0.0
2017-May-15 10:31N 56°10' E 015°34'0 0.0
2017-May-15 10:00N 56°10' E 015°34'0 0.0
2017-May-15 09:31N 56°10' E 015°34'0 0.0
2017-May-15 09:00N 56°10' E 015°34'0 0.0
2017-May-15 08:30N 56°10' E 015°34'0 0.0
2017-May-15 08:00N 56°10' E 015°34'0 0.0
2017-May-15 07:30N 56°10' E 015°34'2 3.2
2017-May-15 07:00N 56°08' E 015°35'5 9.1
2017-May-15 06:30N 56°04' E 015°35'5 9.2
2017-May-15 06:01N 56°01' E 015°42'5 9.2
2017-May-15 05:30N 55°59' E 015°49'5 9.3
2017-May-15 05:01N 55°57' E 015°56'5 9.2
2017-May-15 04:31N 55°55' E 016°04'5 9.2
2017-May-15 04:00N 55°53' E 016°12'  
Track history (hours):
 
Tides and Currents Weather Stations Pressure Air Temp Water Temp Dewpoint Dewpoint Depression Visibility Wind Speed Wind Dir Waves Ship Positions

Callsign SLRE (name unknown)

Last reported at 2017-May-25 01:22 UTC. Time now 2017-May-25 14:21 UTC.
Position N 57°02' E 011°57'.

AWS

Date/timePositionNaut miles runAvg speedWind from/ knotsBaromVisibWave heightAir tempDewpointWater temp
2017-May-25 01:22N 57°02' E 011°57'5 1.4
2017-May-24 21:47N 57°00' E 011°48'10 0.5
2017-May-24 00:24N 57°02' E 012°07'2 0.8
2017-May-23 22:15N 57°02' E 012°10'1 2.7
2017-May-23 21:49N 57°01' E 012°11'1 2.5
2017-May-23 21:30N 57°01' E 012°10'1 2.6
2017-May-23 21:00N 57°00' E 012°08'1 2.6
2017-May-23 20:30N 56°60' E 012°05'1 2.6
2017-May-23 20:00N 56°60' E 012°03'1 2.2
2017-May-23 19:22N 57°01' E 012°03'1 2.7
2017-May-23 19:00N 57°01' E 012°05'7 4.4
2017-May-23 17:28N 57°04' E 012°16'0 0.1
2017-May-23 16:52N 57°04' E 012°16'0 0.5
2017-May-23 16:30N 57°03' E 012°16'54 8.9
2017-May-23 10:25N 56°10' E 012°30'4 9.1
2017-May-23 10:00N 56°07' E 012°34'4 8.9
2017-May-23 09:30N 56°03' E 012°39'4 8.7
2017-May-23 09:01N 55°59' E 012°42'4 8.6
2017-May-23 08:30N 55°55' E 012°44'4 8.8
2017-May-23 08:00N 55°51' E 012°43'4 8.7
2017-May-23 07:31N 55°47' E 012°42'4 8.9
2017-May-23 07:00N 55°42' E 012°41'4 8.9
2017-May-23 06:30N 55°38' E 012°42'4 8.8
2017-May-23 06:00N 55°33' E 012°42'4 8.9
2017-May-23 05:30N 55°29' E 012°43'6 9.2
2017-May-23 04:50N 55°23' E 012°43'3 9.1
2017-May-23 04:28N 55°19' E 012°44'4 8.4
2017-May-23 03:59N 55°18' E 012°51'4 9.1
2017-May-23 03:29N 55°18' E 012°59'9 9.2
2017-May-23 02:28N 55°18' E 013°16'5 9.1
2017-May-23 01:58N 55°19' E 013°23'4 9.2
2017-May-23 01:29N 55°19' E 013°31'5 8.8
2017-May-23 00:52N 55°20' E 013°41'4 9.3
2017-May-23 00:29N 55°20' E 013°47'5 9.3
2017-May-22 23:59N 55°20' E 013°55'4 9.2
2017-May-22 23:30N 55°21' E 014°03'5 9.0
2017-May-22 23:00N 55°21' E 014°11'5 9.0
2017-May-22 22:29N 55°23' E 014°18'5 9.4
2017-May-22 21:57N 55°27' E 014°25'5 9.3
2017-May-22 21:27N 55°30' E 014°30'20 9.0
2017-May-22 19:15N 55°44' E 014°55'2 9.0
2017-May-22 19:00N 55°45' E 014°58'4 8.9
2017-May-22 18:30N 55°48' E 015°04'4 8.9
2017-May-22 18:00N 55°51' E 015°10'5 9.0
2017-May-22 17:30N 55°54' E 015°16'4 8.9
2017-May-22 17:00N 55°57' E 015°22'4 8.8
2017-May-22 16:30N 56°01' E 015°27'4 8.6
2017-May-22 16:00N 56°03' E 015°33'4 8.4
2017-May-22 15:30N 56°07' E 015°35'2 4.8
2017-May-22 15:00N 56°10' E 015°34'0 0.0
2017-May-22 14:00N 56°10' E 015°34'0 0.0
2017-May-22 13:30N 56°10' E 015°34'0 0.0
2017-May-22 13:00N 56°10' E 015°34'0 0.0
2017-May-22 12:31N 56°10' E 015°34'0 0.0
2017-May-22 12:01N 56°10' E 015°34'0 0.0
2017-May-22 11:30N 56°10' E 015°34'0 0.0
2017-May-22 11:00N 56°10' E 015°34'0 0.0
2017-May-22 10:30N 56°10' E 015°34'0 0.0
2017-May-22 10:01N 56°10' E 015°34'0 0.0
2017-May-22 09:30N 56°10' E 015°34'0 0.0
2017-May-22 09:01N 56°10' E 015°34'0 0.0
2017-May-22 08:31N 56°10' E 015°34'0 0.0
2017-May-22 08:01N 56°10' E 015°34'0 0.0
2017-May-22 07:31N 56°10' E 015°34'0 0.0
2017-May-22 07:01N 56°10' E 015°34'0 0.0
2017-May-22 06:31N 56°10' E 015°34'0 0.0
2017-May-22 06:00N 56°10' E 015°34'0 0.0
2017-May-22 05:30N 56°10' E 015°34'0 0.0
2017-May-22 05:01N 56°10' E 015°34'0 0.0
2017-May-22 04:30N 56°10' E 015°34'0 0.0
2017-May-22 04:00N 56°10' E 015°34'0 0.0
2017-May-22 03:30N 56°10' E 015°34'0 0.0
2017-May-22 03:00N 56°10' E 015°34'0 0.0
2017-May-22 02:31N 56°10' E 015°34'0 0.0
2017-May-22 02:00N 56°10' E 015°34'0 0.0
2017-May-22 01:31N 56°10' E 015°34'0 0.0
2017-May-22 01:00N 56°10' E 015°34'0 0.0
2017-May-22 00:31N 56°10' E 015°34'0 0.0
2017-May-22 00:00N 56°10' E 015°34'0 0.0
2017-May-21 23:31N 56°10' E 015°34'0 0.0
2017-May-21 23:01N 56°10' E 015°34'0 0.0
2017-May-21 22:30N 56°10' E 015°34'0 0.0
2017-May-21 22:00N 56°10' E 015°34'0 0.0
2017-May-21 21:31N 56°10' E 015°34'0 0.0
2017-May-21 21:01N 56°10' E 015°34'0 0.0
2017-May-21 20:30N 56°10' E 015°34'0 0.0
2017-May-21 20:00N 56°10' E 015°34'0 0.0
2017-May-21 19:30N 56°10' E 015°34'0 0.0
2017-May-21 19:00N 56°10' E 015°34'0 0.0
2017-May-21 18:31N 56°10' E 015°34'0 0.0
2017-May-21 18:01N 56°10' E 015°34'0 0.0
2017-May-21 17:30N 56°10' E 015°34'0 0.0
2017-May-21 17:00N 56°10' E 015°34'0 0.0
2017-May-21 16:30N 56°10' E 015°34'0 0.0
2017-May-21 16:00N 56°10' E 015°34'0 0.0
2017-May-21 15:30N 56°10' E 015°34'0 0.0
2017-May-21 15:00N 56°10' E 015°34'0 0.0
2017-May-21 14:30N 56°10' E 015°34'0 0.0
2017-May-21 13:31N 56°10' E 015°34'0 0.0
2017-May-21 13:01N 56°10' E 015°34'0 0.0
2017-May-21 12:30N 56°10' E 015°34'0 0.0
2017-May-21 12:01N 56°10' E 015°34'0 0.0
2017-May-21 11:30N 56°10' E 015°34'0 0.0
2017-May-21 11:00N 56°10' E 015°34'0 0.0
2017-May-21 10:30N 56°10' E 015°34'0 0.0
2017-May-21 10:00N 56°10' E 015°34'0 0.0
2017-May-21 09:31N 56°10' E 015°34'0 0.0
2017-May-21 09:00N 56°10' E 015°34'0 0.0
2017-May-21 08:30N 56°10' E 015°34'0 0.0
2017-May-21 08:00N 56°10' E 015°34'0 0.0
2017-May-21 07:30N 56°10' E 015°34'0 0.0
2017-May-21 07:00N 56°10' E 015°34'0 0.0
2017-May-21 06:31N 56°10' E 015°34'0 0.0
2017-May-21 06:01N 56°10' E 015°34'0 0.0
2017-May-21 05:30N 56°10' E 015°34'0 0.0
2017-May-21 05:00N 56°10' E 015°34'0 0.0
2017-May-21 04:30N 56°10' E 015°34'0 0.0
2017-May-21 04:00N 56°10' E 015°34'0 0.0
2017-May-21 03:31N 56°10' E 015°34'0 0.0
2017-May-21 03:01N 56°10' E 015°34'0 0.0
2017-May-21 02:31N 56°10' E 015°34'0 0.0
2017-May-21 02:00N 56°10' E 015°34'0 0.0
2017-May-21 01:30N 56°10' E 015°34'0 0.0
2017-May-21 01:00N 56°10' E 015°34'0 0.0
2017-May-21 00:30N 56°10' E 015°34'0 0.0
2017-May-21 00:00N 56°10' E 015°34'0 0.0
2017-May-20 23:31N 56°10' E 015°34'0 0.0
2017-May-20 23:00N 56°10' E 015°34'0 0.0
2017-May-20 22:30N 56°10' E 015°34'0 0.0
2017-May-20 22:01N 56°10' E 015°34'0 0.0
2017-May-20 21:30N 56°10' E 015°34'0 0.0
2017-May-20 21:00N 56°10' E 015°34'0 0.0
2017-May-20 20:30N 56°10' E 015°34'0 0.0
2017-May-20 20:00N 56°10' E 015°34'0 0.0
2017-May-20 19:31N 56°10' E 015°34'0 0.0
2017-May-20 19:01N 56°10' E 015°34'0 0.0
2017-May-20 18:30N 56°10' E 015°34'0 0.0
2017-May-20 18:01N 56°10' E 015°34'0 0.0
2017-May-20 17:30N 56°10' E 015°34'0 0.0
2017-May-20 17:00N 56°10' E 015°34'0 0.0
2017-May-20 16:30N 56°10' E 015°34'0 0.0
2017-May-20 16:00N 56°10' E 015°34'0 0.0
2017-May-20 15:31N 56°10' E 015°34'0 0.0
2017-May-20 15:01N 56°10' E 015°34'0 0.0
2017-May-20 14:00N 56°10' E 015°34'0 0.0
2017-May-20 13:30N 56°10' E 015°34'0 0.0
2017-May-20 13:00N 56°10' E 015°34'0 0.0
2017-May-20 12:31N 56°10' E 015°34'0 0.0
2017-May-20 12:00N 56°10' E 015°34'0 0.0
2017-May-20 11:30N 56°10' E 015°34'0 0.0
2017-May-20 11:00N 56°10' E 015°34'0 0.0
2017-May-20 10:31N 56°10' E 015°34'0 0.0
2017-May-20 10:01N 56°10' E 015°34'0 0.0
2017-May-20 09:31N 56°10' E 015°34'0 0.0
2017-May-20 09:00N 56°10' E 015°34'0 0.0
2017-May-20 08:30N 56°10' E 015°34'0 0.0
2017-May-20 08:01N 56°10' E 015°34'0 0.0
2017-May-20 07:31N 56°10' E 015°34'0 0.0
2017-May-20 07:00N 56°10' E 015°34'0 0.0
2017-May-20 06:30N 56°10' E 015°34'0 0.0
2017-May-20 06:00N 56°10' E 015°34'0 0.0
2017-May-20 05:30N 56°10' E 015°34'0 0.0
2017-May-20 05:00N 56°10' E 015°34'0 0.0
2017-May-20 04:31N 56°10' E 015°34'0 0.0
2017-May-20 04:00N 56°10' E 015°34'0 0.0
2017-May-20 03:31N 56°10' E 015°34'0 0.0
2017-May-20 03:00N 56°10' E 015°34'0 0.0
2017-May-20 02:30N 56°10' E 015°34'0 0.0
2017-May-20 02:00N 56°10' E 015°34'0 0.0
2017-May-20 01:30N 56°10' E 015°34'0 0.0
2017-May-20 01:00N 56°10' E 015°34'0 0.0
2017-May-20 00:30N 56°10' E 015°34'0 0.0
2017-May-20 00:00N 56°10' E 015°34'0 0.0
2017-May-19 23:30N 56°10' E 015°34'0 0.0
2017-May-19 23:00N 56°10' E 015°34'0 0.0
2017-May-19 22:30N 56°10' E 015°34'0 0.0
2017-May-19 22:00N 56°10' E 015°34'0 0.0
2017-May-19 21:31N 56°10' E 015°34'0 0.0
2017-May-19 21:01N 56°10' E 015°34'0 0.0
2017-May-19 20:30N 56°10' E 015°34'0 0.0
2017-May-19 20:00N 56°10' E 015°34'0 0.0
2017-May-19 19:31N 56°10' E 015°34'0 0.0
2017-May-19 19:00N 56°10' E 015°34'0 0.0
2017-May-19 18:31N 56°10' E 015°34'0 0.0
2017-May-19 18:00N 56°10' E 015°34'0 0.0
2017-May-19 17:30N 56°10' E 015°34'0 0.0
2017-May-19 17:00N 56°10' E 015°34'0 0.0
2017-May-19 16:30N 56°10' E 015°34'0 0.0
2017-May-19 16:00N 56°10' E 015°34'0 0.0
2017-May-19 15:30N 56°10' E 015°34'0 0.0
2017-May-19 15:00N 56°10' E 015°34'0 0.0
2017-May-19 14:00N 56°10' E 015°34'0 0.0
2017-May-19 13:30N 56°10' E 015°34'0 0.0
2017-May-19 13:00N 56°10' E 015°34'0 0.0
2017-May-19 12:30N 56°10' E 015°34'0 0.0
2017-May-19 12:00N 56°10' E 015°34'0 0.0
2017-May-19 11:30N 56°10' E 015°34'0 0.0
2017-May-19 11:00N 56°10' E 015°34'0 0.0
2017-May-19 10:30N 56°10' E 015°34'0 0.0
2017-May-19 10:00N 56°10' E 015°34'0 0.0
2017-May-19 09:30N 56°10' E 015°34'0 0.0
2017-May-19 09:01N 56°10' E 015°34'0 0.0
2017-May-19 08:30N 56°10' E 015°34'0 0.0
2017-May-19 08:01N 56°10' E 015°34'0 0.0
2017-May-19 07:30N 56°10' E 015°34'0 0.0
2017-May-19 07:00N 56°10' E 015°34'0 0.0
2017-May-19 06:30N 56°10' E 015°34'0 0.0
2017-May-19 06:00N 56°10' E 015°34'0 0.1
2017-May-19 05:30N 56°10' E 015°34'0 0.1
2017-May-19 05:00N 56°10' E 015°34'0 0.0
2017-May-19 04:31N 56°10' E 015°34'0 0.0
2017-May-19 04:01N 56°10' E 015°34'0 0.0
2017-May-19 03:30N 56°10' E 015°34'4 7.7
2017-May-19 03:01N 56°06' E 015°34'4 8.6
2017-May-19 02:31N 56°02' E 015°39'5 9.6
2017-May-19 02:00N 56°00' E 015°46'5 9.5
2017-May-19 01:30N 55°58' E 015°54'5 9.6
2017-May-19 01:01N 55°56' E 016°02'5 9.5
2017-May-19 00:30N 55°54' E 016°10'5 9.4
2017-May-19 00:00N 55°52' E 016°18'  
2017-May-16 15:37N 55°21' E 017°39'0 3.2
2017-May-16 15:30N 55°21' E 017°39'2 3.2
2017-May-16 15:01N 55°21' E 017°42'2 3.5
2017-May-16 14:30N 55°21' E 017°45'1 0.8
2017-May-16 13:31N 55°20' E 017°44'2 3.1
2017-May-16 13:00N 55°20' E 017°41'6 3.1
2017-May-16 11:09N 55°21' E 017°31'1 3.6
2017-May-16 11:00N 55°20' E 017°30'1 2.7
2017-May-16 10:30N 55°20' E 017°33'1 3.0
2017-May-16 10:00N 55°20' E 017°35'1 3.1
2017-May-16 09:30N 55°20' E 017°38'2 3.1
2017-May-16 09:00N 55°20' E 017°41'2 3.0
2017-May-16 08:30N 55°20' E 017°43'4 2.5
2017-May-16 07:01N 55°19' E 017°37'0 3.2
2017-May-16 06:57N 55°19' E 017°37'3 3.1
2017-May-16 05:56N 55°18' E 017°31'1 2.8
2017-May-16 05:30N 55°18' E 017°33'64 4.8
2017-May-15 16:09N 55°55' E 016°02'1 8.9
2017-May-15 16:00N 55°56' E 015°60'4 8.9
2017-May-15 15:30N 55°58' E 015°53'4 8.9
2017-May-15 15:00N 55°60' E 015°46'9 8.5
2017-May-15 14:00N 56°05' E 015°34'4 8.3
2017-May-15 13:30N 56°09' E 015°34'1 1.0
2017-May-15 13:00N 56°10' E 015°34'0 0.0
2017-May-15 12:30N 56°10' E 015°34'0 0.0
2017-May-15 12:01N 56°10' E 015°34'0 0.0
2017-May-15 11:30N 56°10' E 015°34'0 0.0
2017-May-15 11:01N 56°10' E 015°34'0 0.0
2017-May-15 10:31N 56°10' E 015°34'0 0.0
2017-May-15 10:00N 56°10' E 015°34'0 0.0
2017-May-15 09:31N 56°10' E 015°34'0 0.0
2017-May-15 09:00N 56°10' E 015°34'0 0.0
2017-May-15 08:30N 56°10' E 015°34'0 0.0
2017-May-15 08:00N 56°10' E 015°34'0 0.0
2017-May-15 07:30N 56°10' E 015°34'2 3.2
2017-May-15 07:00N 56°08' E 015°35'5 9.1
2017-May-15 06:30N 56°04' E 015°35'5 9.2
2017-May-15 06:01N 56°01' E 015°42'5 9.2
2017-May-15 05:30N 55°59' E 015°49'5 9.3
2017-May-15 05:01N 55°57' E 015°56'5 9.2
2017-May-15 04:31N 55°55' E 016°04'5 9.2
2017-May-15 04:00N 55°53' E 016°12'  

Dump ship's entire track history